Sv.knyaz Vladimir — UBKI2 — position and weather

sailwx.info

Track history (hours):
 
Tides and Currents Weather Stations Pressure Air Temp Water Temp Dewpoint Dewpoint Depression Visibility Wind Speed Wind Dir Waves Ship Positions

Sv.knyaz Vladimir

Last reported at 2016-Jun-28 19:33 UTC. Time now 2016-Jun-30 01:28 UTC.
Position N 45°28' E 036°47'.

Length 128 m; draft 3 m.

Type: Cargo ship. MMSI: 273350360.

Date/timePositionNaut miles runAvg speedWind from/ knotsBaromVisibWave heightAir tempDewpointWater temp
2016-Jun-28 19:33N 45°28' E 036°47'9 8.6
2016-Jun-28 18:33N 45°21' E 036°39'8 8.3
2016-Jun-28 17:33N 45°18' E 036°29'4 3.5
2016-Jun-28 16:33N 45°14' E 036°29'4 3.7
2016-Jun-28 15:31N 45°11' E 036°31'2 1.9
2016-Jun-28 14:33N 45°09' E 036°33'0 0.0
2016-Jun-28 13:33N 45°09' E 036°33'0 0.0
2016-Jun-28 12:33N 45°09' E 036°33'0 0.0
2016-Jun-28 11:33N 45°09' E 036°33'0 0.0
2016-Jun-28 10:33N 45°09' E 036°33'0 0.0
2016-Jun-28 09:33N 45°09' E 036°33'0 0.0
2016-Jun-28 08:23N 45°09' E 036°33'0 0.0
2016-Jun-28 07:33N 45°09' E 036°33'0 0.0
2016-Jun-28 06:33N 45°09' E 036°33'0 0.0
2016-Jun-28 04:33N 45°09' E 036°33'0 0.0
2016-Jun-28 02:33N 45°09' E 036°33'1 1.1
2016-Jun-28 01:33N 45°10' E 036°32'7 6.8
2016-Jun-28 00:33N 45°16' E 036°28'8 7.4
2016-Jun-27 23:32N 45°21' E 036°37'7 6.9
2016-Jun-27 22:33N 45°26' E 036°43'7 6.6
2016-Jun-27 21:33N 45°28' E 036°52'8 8.2
2016-Jun-27 20:33N 45°27' E 037°03'8 8.3
2016-Jun-27 19:33N 45°23' E 037°14'7 3.5
2016-Jun-27 17:29N 45°19' E 037°22'0 0.0
2016-Jun-26 22:07N 45°20' E 037°22'24 0.9
2016-Jun-25 18:32N 45°28' E 036°52'7 7.6
2016-Jun-25 17:33N 45°25' E 036°42'7 7.3
2016-Jun-25 16:33N 45°20' E 036°35'6 6.4
2016-Jun-25 15:33N 45°15' E 036°28'7 6.6
2016-Jun-25 14:33N 45°10' E 036°33'0 0.4
2016-Jun-25 13:23N 45°09' E 036°33'0 0.0
2016-Jun-25 10:23N 45°09' E 036°33'0 0.0
2016-Jun-25 09:32N 45°09' E 036°33'0 0.0
2016-Jun-25 08:29N 45°09' E 036°33'0 0.0
2016-Jun-25 06:26N 45°09' E 036°33'0 0.0
2016-Jun-25 05:20N 45°09' E 036°33'0 0.0
2016-Jun-25 02:33N 45°09' E 036°33'1 0.5
2016-Jun-25 01:26N 45°09' E 036°33'5 5.2
2016-Jun-25 00:33N 45°12' E 036°29'6 6.3
2016-Jun-24 23:33N 45°19' E 036°30'8 8.3
2016-Jun-24 22:33N 45°23' E 036°40'8 7.9
2016-Jun-24 21:33N 45°28' E 036°49'25 1.1
2016-Jun-23 22:11N 45°20' E 037°22'5 0.2
2016-Jun-22 16:09N 45°23' E 037°17'5 8.1
2016-Jun-22 15:33N 45°24' E 037°11'9 8.5
2016-Jun-22 14:30N 45°27' E 036°59'7 7.8
2016-Jun-22 13:34N 45°28' E 036°48'8 7.7
2016-Jun-22 12:34N 45°22' E 036°40'6 6.4
2016-Jun-22 11:33N 45°19' E 036°32'6 5.8
2016-Jun-22 10:34N 45°14' E 036°29'5 4.8
2016-Jun-22 09:33N 45°10' E 036°33'0 0.0
2016-Jun-22 08:33N 45°10' E 036°33'0 0.0
2016-Jun-22 07:33N 45°10' E 036°33'0 0.0
2016-Jun-22 06:30N 45°10' E 036°33'0 0.0
2016-Jun-22 05:33N 45°10' E 036°33'0 0.0
2016-Jun-22 04:33N 45°10' E 036°33'0 0.0
2016-Jun-22 03:33N 45°10' E 036°33'0 0.0
2016-Jun-22 02:32N 45°10' E 036°33'0 0.0
2016-Jun-22 01:32N 45°10' E 036°33'0 0.0
2016-Jun-22 00:32N 45°10' E 036°33'0 0.0
2016-Jun-21 23:32N 45°10' E 036°33'0 0.0
2016-Jun-21 22:26N 45°10' E 036°33'0 0.0
2016-Jun-21 21:29N 45°10' E 036°33'0 0.0
2016-Jun-21 20:32N 45°10' E 036°33'0 0.0
2016-Jun-21 19:32N 45°10' E 036°33'0 0.0
2016-Jun-21 18:26N 45°10' E 036°33'0 0.0
2016-Jun-21 17:32N 45°10' E 036°33'0 0.0
2016-Jun-21 16:29N 45°10' E 036°33'0 0.0
2016-Jun-21 15:32N 45°10' E 036°33'0 0.0
2016-Jun-21 14:32N 45°10' E 036°33'0 0.0
2016-Jun-21 13:26N 45°10' E 036°33'1 1.3
2016-Jun-21 12:33N 45°09' E 036°33'6 6.4
2016-Jun-21 11:33N 45°14' E 036°28'8 7.8
2016-Jun-21 10:33N 45°20' E 036°36'9 8.8
2016-Jun-21 09:34N 45°27' E 036°44'10 8.7
2016-Jun-21 08:24N 45°28' E 036°58'8 8.8
2016-Jun-21 07:26N 45°25' E 037°10'10 3.5
2016-Jun-21 04:25N 45°19' E 037°22'0 0.0
2016-Jun-21 03:31N 45°19' E 037°22'0 0.0
2016-Jun-21 00:34N 45°19' E 037°22'0 0.0
2016-Jun-20 19:26N 45°19' E 037°22'5 0.6
2016-Jun-20 10:04N 45°24' E 037°18'0 0.0
2016-Jun-20 09:31N 45°24' E 037°18'0 0.0
2016-Jun-20 08:19N 45°24' E 037°18'0 0.0
2016-Jun-20 07:31N 45°24' E 037°18'0 0.0
2016-Jun-20 06:31N 45°24' E 037°18'0 0.0
2016-Jun-20 05:22N 45°24' E 037°18'0 0.0
2016-Jun-20 04:31N 45°24' E 037°18'0 0.0
2016-Jun-20 03:31N 45°24' E 037°18'0 0.1
2016-Jun-20 01:31N 45°24' E 037°18'18 8.7
2016-Jun-19 23:29N 45°29' E 036°54'8 8.1
2016-Jun-19 22:33N 45°26' E 036°44'8 7.9
2016-Jun-19 21:33N 45°20' E 036°36'7 7.1
2016-Jun-19 20:33N 45°16' E 036°28'6 5.6
2016-Jun-19 19:25N 45°10' E 036°33'0 0.0
2016-Jun-19 18:31N 45°10' E 036°33'0 0.0
2016-Jun-19 17:31N 45°10' E 036°33'0 0.0
2016-Jun-19 16:31N 45°10' E 036°33'0 0.0
2016-Jun-19 15:31N 45°10' E 036°33'0 0.0
2016-Jun-19 14:31N 45°10' E 036°33'0 0.0
2016-Jun-19 13:31N 45°10' E 036°33'0 0.0
2016-Jun-19 12:31N 45°10' E 036°33'0 0.0
2016-Jun-19 11:31N 45°10' E 036°33'0 0.0
2016-Jun-19 10:31N 45°10' E 036°33'0 0.0
2016-Jun-19 09:31N 45°10' E 036°33'0 0.0
2016-Jun-19 08:31N 45°10' E 036°33'0 0.0
2016-Jun-19 07:31N 45°10' E 036°33'0 0.0
2016-Jun-19 06:31N 45°10' E 036°33'0 0.0
2016-Jun-19 05:31N 45°10' E 036°33'0 0.0
2016-Jun-19 04:31N 45°10' E 036°33'0 0.5
2016-Jun-19 03:31N 45°10' E 036°32'0 0.0
2016-Jun-19 02:33N 45°10' E 036°32'0 0.0
2016-Jun-19 01:33N 45°10' E 036°32'0 0.0
2016-Jun-19 00:24N 45°10' E 036°32'0 0.0
2016-Jun-18 23:30N 45°10' E 036°32'0 0.0
2016-Jun-18 22:30N 45°10' E 036°32'0 0.0
2016-Jun-18 21:33N 45°10' E 036°32'0 0.0
2016-Jun-18 20:27N 45°10' E 036°32'6 6.5
2016-Jun-18 19:33N 45°15' E 036°28'  
Track history (hours):
 
Tides and Currents Weather Stations Pressure Air Temp Water Temp Dewpoint Dewpoint Depression Visibility Wind Speed Wind Dir Waves Ship Positions

Sv.knyaz Vladimir

Last reported at 2016-Jun-28 19:33 UTC. Time now 2016-Jun-30 01:28 UTC.
Position N 45°28' E 036°47'.

Length 128 m; draft 3 m.

Type: Cargo ship. MMSI: 273350360.

Date/timePositionNaut miles runAvg speedWind from/ knotsBaromVisibWave heightAir tempDewpointWater temp
2016-Jun-28 19:33N 45°28' E 036°47'9 8.6
2016-Jun-28 18:33N 45°21' E 036°39'8 8.3
2016-Jun-28 17:33N 45°18' E 036°29'4 3.5
2016-Jun-28 16:33N 45°14' E 036°29'4 3.7
2016-Jun-28 15:31N 45°11' E 036°31'2 1.9
2016-Jun-28 14:33N 45°09' E 036°33'0 0.0
2016-Jun-28 13:33N 45°09' E 036°33'0 0.0
2016-Jun-28 12:33N 45°09' E 036°33'0 0.0
2016-Jun-28 11:33N 45°09' E 036°33'0 0.0
2016-Jun-28 10:33N 45°09' E 036°33'0 0.0
2016-Jun-28 09:33N 45°09' E 036°33'0 0.0
2016-Jun-28 08:23N 45°09' E 036°33'0 0.0
2016-Jun-28 07:33N 45°09' E 036°33'0 0.0
2016-Jun-28 06:33N 45°09' E 036°33'0 0.0
2016-Jun-28 04:33N 45°09' E 036°33'0 0.0
2016-Jun-28 02:33N 45°09' E 036°33'1 1.1
2016-Jun-28 01:33N 45°10' E 036°32'7 6.8
2016-Jun-28 00:33N 45°16' E 036°28'8 7.4
2016-Jun-27 23:32N 45°21' E 036°37'7 6.9
2016-Jun-27 22:33N 45°26' E 036°43'7 6.6
2016-Jun-27 21:33N 45°28' E 036°52'8 8.2
2016-Jun-27 20:33N 45°27' E 037°03'8 8.3
2016-Jun-27 19:33N 45°23' E 037°14'7 3.5
2016-Jun-27 17:29N 45°19' E 037°22'0 0.0
2016-Jun-26 22:07N 45°20' E 037°22'24 0.9
2016-Jun-25 18:32N 45°28' E 036°52'7 7.6
2016-Jun-25 17:33N 45°25' E 036°42'7 7.3
2016-Jun-25 16:33N 45°20' E 036°35'6 6.4
2016-Jun-25 15:33N 45°15' E 036°28'7 6.6
2016-Jun-25 14:33N 45°10' E 036°33'0 0.4
2016-Jun-25 13:23N 45°09' E 036°33'0 0.0
2016-Jun-25 10:23N 45°09' E 036°33'0 0.0
2016-Jun-25 09:32N 45°09' E 036°33'0 0.0
2016-Jun-25 08:29N 45°09' E 036°33'0 0.0
2016-Jun-25 06:26N 45°09' E 036°33'0 0.0
2016-Jun-25 05:20N 45°09' E 036°33'0 0.0
2016-Jun-25 02:33N 45°09' E 036°33'1 0.5
2016-Jun-25 01:26N 45°09' E 036°33'5 5.2
2016-Jun-25 00:33N 45°12' E 036°29'6 6.3
2016-Jun-24 23:33N 45°19' E 036°30'8 8.3
2016-Jun-24 22:33N 45°23' E 036°40'8 7.9
2016-Jun-24 21:33N 45°28' E 036°49'25 1.1
2016-Jun-23 22:11N 45°20' E 037°22'5 0.2
2016-Jun-22 16:09N 45°23' E 037°17'5 8.1
2016-Jun-22 15:33N 45°24' E 037°11'9 8.5
2016-Jun-22 14:30N 45°27' E 036°59'7 7.8
2016-Jun-22 13:34N 45°28' E 036°48'8 7.7
2016-Jun-22 12:34N 45°22' E 036°40'6 6.4
2016-Jun-22 11:33N 45°19' E 036°32'6 5.8
2016-Jun-22 10:34N 45°14' E 036°29'5 4.8
2016-Jun-22 09:33N 45°10' E 036°33'0 0.0
2016-Jun-22 08:33N 45°10' E 036°33'0 0.0
2016-Jun-22 07:33N 45°10' E 036°33'0 0.0
2016-Jun-22 06:30N 45°10' E 036°33'0 0.0
2016-Jun-22 05:33N 45°10' E 036°33'0 0.0
2016-Jun-22 04:33N 45°10' E 036°33'0 0.0
2016-Jun-22 03:33N 45°10' E 036°33'0 0.0
2016-Jun-22 02:32N 45°10' E 036°33'0 0.0
2016-Jun-22 01:32N 45°10' E 036°33'0 0.0
2016-Jun-22 00:32N 45°10' E 036°33'0 0.0
2016-Jun-21 23:32N 45°10' E 036°33'0 0.0
2016-Jun-21 22:26N 45°10' E 036°33'0 0.0
2016-Jun-21 21:29N 45°10' E 036°33'0 0.0
2016-Jun-21 20:32N 45°10' E 036°33'0 0.0
2016-Jun-21 19:32N 45°10' E 036°33'0 0.0
2016-Jun-21 18:26N 45°10' E 036°33'0 0.0
2016-Jun-21 17:32N 45°10' E 036°33'0 0.0
2016-Jun-21 16:29N 45°10' E 036°33'0 0.0
2016-Jun-21 15:32N 45°10' E 036°33'0 0.0
2016-Jun-21 14:32N 45°10' E 036°33'0 0.0
2016-Jun-21 13:26N 45°10' E 036°33'1 1.3
2016-Jun-21 12:33N 45°09' E 036°33'6 6.4
2016-Jun-21 11:33N 45°14' E 036°28'8 7.8
2016-Jun-21 10:33N 45°20' E 036°36'9 8.8
2016-Jun-21 09:34N 45°27' E 036°44'10 8.7
2016-Jun-21 08:24N 45°28' E 036°58'8 8.8
2016-Jun-21 07:26N 45°25' E 037°10'10 3.5
2016-Jun-21 04:25N 45°19' E 037°22'0 0.0
2016-Jun-21 03:31N 45°19' E 037°22'0 0.0
2016-Jun-21 00:34N 45°19' E 037°22'0 0.0
2016-Jun-20 19:26N 45°19' E 037°22'5 0.6
2016-Jun-20 10:04N 45°24' E 037°18'0 0.0
2016-Jun-20 09:31N 45°24' E 037°18'0 0.0
2016-Jun-20 08:19N 45°24' E 037°18'0 0.0
2016-Jun-20 07:31N 45°24' E 037°18'0 0.0
2016-Jun-20 06:31N 45°24' E 037°18'0 0.0
2016-Jun-20 05:22N 45°24' E 037°18'0 0.0
2016-Jun-20 04:31N 45°24' E 037°18'0 0.0
2016-Jun-20 03:31N 45°24' E 037°18'0 0.1
2016-Jun-20 01:31N 45°24' E 037°18'18 8.7
2016-Jun-19 23:29N 45°29' E 036°54'8 8.1
2016-Jun-19 22:33N 45°26' E 036°44'8 7.9
2016-Jun-19 21:33N 45°20' E 036°36'7 7.1
2016-Jun-19 20:33N 45°16' E 036°28'6 5.6
2016-Jun-19 19:25N 45°10' E 036°33'0 0.0
2016-Jun-19 18:31N 45°10' E 036°33'0 0.0
2016-Jun-19 17:31N 45°10' E 036°33'0 0.0
2016-Jun-19 16:31N 45°10' E 036°33'0 0.0
2016-Jun-19 15:31N 45°10' E 036°33'0 0.0
2016-Jun-19 14:31N 45°10' E 036°33'0 0.0
2016-Jun-19 13:31N 45°10' E 036°33'0 0.0
2016-Jun-19 12:31N 45°10' E 036°33'0 0.0
2016-Jun-19 11:31N 45°10' E 036°33'0 0.0
2016-Jun-19 10:31N 45°10' E 036°33'0 0.0
2016-Jun-19 09:31N 45°10' E 036°33'0 0.0
2016-Jun-19 08:31N 45°10' E 036°33'0 0.0
2016-Jun-19 07:31N 45°10' E 036°33'0 0.0
2016-Jun-19 06:31N 45°10' E 036°33'0 0.0
2016-Jun-19 05:31N 45°10' E 036°33'0 0.0
2016-Jun-19 04:31N 45°10' E 036°33'0 0.5
2016-Jun-19 03:31N 45°10' E 036°32'0 0.0
2016-Jun-19 02:33N 45°10' E 036°32'0 0.0
2016-Jun-19 01:33N 45°10' E 036°32'0 0.0
2016-Jun-19 00:24N 45°10' E 036°32'0 0.0
2016-Jun-18 23:30N 45°10' E 036°32'0 0.0
2016-Jun-18 22:30N 45°10' E 036°32'0 0.0
2016-Jun-18 21:33N 45°10' E 036°32'0 0.0
2016-Jun-18 20:27N 45°10' E 036°32'6 6.5
2016-Jun-18 19:33N 45°15' E 036°28'  

Dump ship's entire track history